createdAt,value
2022-12-19T00:02:03.459Z,-7.90
2022-12-19T00:07:06.616Z,-7.75
2022-12-19T00:12:14.533Z,-7.59
2022-12-19T00:17:20.610Z,-7.45
2022-12-19T00:22:24.021Z,-7.36
2022-12-19T00:27:27.639Z,-7.27
2022-12-19T00:32:30.806Z,-7.19
2022-12-19T00:37:33.850Z,-7.12
2022-12-19T00:42:36.852Z,-7.07
2022-12-19T00:47:39.958Z,-7.03
2022-12-19T00:52:43.063Z,-7.00
2022-12-19T00:57:46.789Z,-6.97
2022-12-19T01:02:50.349Z,-6.98
2022-12-19T01:07:53.717Z,-6.97
2022-12-19T01:12:56.820Z,-6.93
2022-12-19T01:17:59.925Z,-6.90
2022-12-19T01:23:03.303Z,-6.91
2022-12-19T01:28:07.463Z,-6.94
2022-12-19T01:33:14.565Z,-7.02
2022-12-19T01:38:18.551Z,-7.08
2022-12-19T01:43:22.515Z,-7.13
2022-12-19T01:48:43.548Z,-7.18
2022-12-19T01:53:49.762Z,-7.27
2022-12-19T01:59:05.902Z,-7.38
2022-12-19T02:04:10.745Z,-7.49
2022-12-19T02:09:13.988Z,-7.61
2022-12-19T02:14:17.163Z,-7.74
2022-12-19T02:19:39.115Z,-7.85
2022-12-19T02:24:54.833Z,-7.97
2022-12-19T02:30:10.930Z,-8.08
2022-12-19T02:35:17.317Z,-8.17
2022-12-19T02:40:22.264Z,-8.22
2022-12-19T02:45:28.813Z,-8.28
2022-12-19T02:50:42.619Z,-8.35
2022-12-19T02:56:05.615Z,-8.38
2022-12-19T03:01:36.875Z,-8.36
2022-12-19T03:06:43.964Z,-8.26
2022-12-19T03:11:49.725Z,-8.14
2022-12-19T03:16:53.337Z,-8.05
2022-12-19T03:21:56.662Z,-8.01
2022-12-19T03:27:05.289Z,-7.94
2022-12-19T03:32:14.216Z,-7.87
2022-12-19T03:37:20.004Z,-7.84
2022-12-19T03:42:44.925Z,-7.84
2022-12-19T03:47:49.626Z,-7.85
2022-12-19T03:53:00.048Z,-7.84
2022-12-19T03:58:09.503Z,-7.83
2022-12-19T04:03:15.534Z,-7.84
2022-12-19T04:08:19.702Z,-7.85
2022-12-19T04:13:30.165Z,-7.85
2022-12-19T04:18:33.713Z,-7.88
2022-12-19T04:23:40.284Z,-7.93
2022-12-19T04:28:48.612Z,-7.98
2022-12-19T04:33:51.829Z,-8.03
2022-12-19T04:38:54.850Z,-8.06
2022-12-19T04:43:57.930Z,-8.09
2022-12-19T04:49:01.963Z,-8.07
2022-12-19T04:54:05.264Z,-8.01
2022-12-19T04:59:08.369Z,-7.96
2022-12-19T05:04:11.681Z,-7.93
2022-12-19T05:09:14.706Z,-7.91
2022-12-19T05:14:17.789Z,-7.91
2022-12-19T05:19:20.900Z,-7.90
2022-12-19T05:24:24.107Z,-7.90
2022-12-19T05:29:27.118Z,-7.90
2022-12-19T05:34:30.208Z,-7.92
2022-12-19T05:39:33.312Z,-7.94
2022-12-19T05:44:36.739Z,-7.91
2022-12-19T05:49:39.725Z,-7.87
2022-12-19T05:54:42.833Z,-7.84
2022-12-19T05:59:45.992Z,-7.79
2022-12-19T06:04:49.152Z,-7.71
2022-12-19T06:09:52.248Z,-7.67
2022-12-19T06:14:55.354Z,-7.65
2022-12-19T06:19:58.456Z,-7.62
2022-12-19T06:25:01.563Z,-7.61
2022-12-19T06:30:05.998Z,-7.59
2022-12-19T06:35:09.204Z,-7.57
2022-12-19T06:40:32.380Z,-7.56
2022-12-19T06:45:35.619Z,-7.54
2022-12-19T06:50:39.462Z,-7.50
2022-12-19T06:55:42.717Z,-7.46
2022-12-19T07:00:46.222Z,-7.44
2022-12-19T07:05:49.645Z,-7.42
2022-12-19T07:10:53.978Z,-7.36
2022-12-19T07:16:01.542Z,-7.29
2022-12-19T07:21:05.102Z,-7.19
2022-12-19T07:26:08.624Z,-7.10
2022-12-19T07:31:11.826Z,-7.01
2022-12-19T07:36:15.039Z,-6.81
2022-12-19T07:41:18.241Z,-5.56
2022-12-19T07:46:22.249Z,-3.92
2022-12-19T07:51:25.697Z,-2.49
2022-12-19T07:56:28.789Z,-1.25
2022-12-19T08:01:32.188Z,-0.36
2022-12-19T08:06:40.779Z,0.28
2022-12-19T08:11:44.962Z,0.92
2022-12-19T08:17:18.764Z,1.19
2022-12-19T08:22:11.254Z,0.93
2022-12-19T08:27:16.088Z,1.04
2022-12-19T08:32:21.446Z,0.42
2022-12-19T08:37:25.268Z,-0.10
2022-12-19T08:42:28.482Z,-0.51
2022-12-19T08:47:32.297Z,-1.15
2022-12-19T08:52:35.610Z,-1.62
2022-12-19T08:57:39.028Z,-1.98
2022-12-19T09:02:42.568Z,-2.25
2022-12-19T09:07:46.869Z,-2.48
2022-12-19T09:12:55.786Z,-2.32
2022-12-19T09:18:01.075Z,-1.82
2022-12-19T09:23:04.183Z,-1.11
2022-12-19T09:33:31.786Z,0.68
2022-12-19T09:38:37.973Z,1.07
2022-12-19T09:43:44.460Z,-0.05
2022-12-19T09:48:54.161Z,-1.51
2022-12-19T09:54:01.004Z,-2.64
2022-12-19T09:59:08.924Z,-3.35
2022-12-19T10:04:14.393Z,-3.85
2022-12-19T10:11:16.355Z,-4.18
2022-12-19T10:15:16.536Z,-4.27
2022-12-19T10:20:25.491Z,-4.30
2022-12-19T10:25:41.042Z,-4.35
2022-12-19T10:30:49.007Z,-4.32
2022-12-19T10:35:54.493Z,-4.22
2022-12-19T10:41:16.081Z,-4.19
2022-12-19T10:46:38.383Z,-4.20
2022-12-19T10:51:43.160Z,-4.31
2022-12-19T10:56:47.121Z,-4.42
2022-12-19T11:02:00.780Z,-4.47
2022-12-19T11:07:11.624Z,-4.48
2022-12-19T11:16:47.310Z,-4.48
2022-12-19T11:25:28.476Z,-4.46
2022-12-19T11:29:46.774Z,-4.41
2022-12-19T11:30:48.365Z,-4.32
2022-12-19T11:34:06.577Z,-4.23
2022-12-19T11:39:15.993Z,-4.20
2022-12-19T11:44:28.673Z,-4.17
2022-12-19T11:49:42.685Z,-4.18
2022-12-19T11:55:22.912Z,-4.17
2022-12-19T12:00:26.207Z,-4.14
2022-12-19T12:05:32.187Z,-4.11
2022-12-19T12:14:14.913Z,-4.10
2022-12-19T12:31:09.282Z,-4.11
2022-12-19T12:31:20.323Z,-4.11
2022-12-19T12:31:39.618Z,-4.09
2022-12-19T12:35:43.570Z,-4.10
2022-12-19T12:38:28.570Z,-4.17
2022-12-19T12:43:32.227Z,-4.21
2022-12-19T12:48:55.453Z,-4.23
2022-12-19T12:54:11.101Z,-4.27
2022-12-19T12:59:22.807Z,-4.35
2022-12-19T13:04:28.568Z,-4.42
2022-12-19T13:09:34.248Z,-4.46
2022-12-19T13:14:40.853Z,-4.51
2022-12-19T13:19:56.838Z,-4.57
2022-12-19T13:25:00.785Z,-4.63
2022-12-19T13:30:05.200Z,-4.68
2022-12-19T13:35:37.945Z,-4.72
2022-12-19T13:40:57.087Z,-4.75
2022-12-19T13:46:02.187Z,-4.77
2022-12-19T13:51:10.292Z,-4.77
2022-12-19T13:56:13.357Z,-4.77
2022-12-19T14:01:24.423Z,-4.77
2022-12-19T14:06:29.402Z,-4.77
2022-12-19T14:12:08.547Z,-4.77
2022-12-19T14:17:06.127Z,-4.76
2022-12-19T14:22:25.430Z,-4.75
2022-12-19T14:28:20.709Z,-4.73
2022-12-19T14:33:45.852Z,-4.69
2022-12-19T14:39:23.550Z,-4.61
2022-12-19T14:52:35.169Z,-4.54
2022-12-19T14:53:17.516Z,-4.47
2022-12-19T14:56:04.639Z,-4.36
2022-12-19T15:01:07.138Z,-4.24
2022-12-19T15:07:05.231Z,-4.11
2022-12-19T15:12:56.657Z,-4.01
2022-12-19T15:17:30.554Z,-3.92
2022-12-19T15:22:34.054Z,-3.86
2022-12-19T15:27:37.829Z,-3.81
2022-12-19T15:32:42.050Z,-3.78
2022-12-19T15:37:45.774Z,-3.74
2022-12-19T15:42:53.703Z,-3.70
2022-12-19T15:47:57.734Z,-3.66
2022-12-19T15:53:03.614Z,-3.61
2022-12-19T15:58:07.927Z,-3.56
2022-12-19T16:03:23.500Z,-3.51
2022-12-19T16:08:28.622Z,-3.45
2022-12-19T16:13:36.694Z,-3.37
2022-12-19T16:18:40.215Z,-3.28
2022-12-19T16:23:43.315Z,-3.18
2022-12-19T16:28:46.417Z,-3.07
2022-12-19T16:33:50.084Z,-2.98
2022-12-19T16:38:53.139Z,-2.93
2022-12-19T16:43:57.177Z,-2.91
2022-12-19T16:49:00.680Z,-2.88
2022-12-19T16:54:03.891Z,-2.86
2022-12-19T16:59:22.045Z,-2.85
2022-12-19T17:04:25.568Z,-2.84
2022-12-19T17:09:28.976Z,-2.80
2022-12-19T17:14:32.598Z,-2.75
2022-12-19T17:19:37.237Z,-2.71
2022-12-19T17:24:40.340Z,-2.68
2022-12-19T17:29:43.557Z,-2.64
2022-12-19T17:34:47.120Z,-2.61
2022-12-19T17:39:50.383Z,-2.59
2022-12-19T17:44:53.562Z,-2.56
2022-12-19T17:49:57.108Z,-2.53
2022-12-19T17:55:00.212Z,-2.51
2022-12-19T18:00:05.568Z,-2.47
2022-12-19T18:05:12.721Z,-2.42
2022-12-19T18:10:18.450Z,-2.37
2022-12-19T18:15:25.339Z,-2.35
2022-12-19T18:20:32.864Z,-2.31
2022-12-19T18:25:37.576Z,-2.26
2022-12-19T18:30:43.688Z,-2.20
2022-12-19T18:35:49.492Z,-2.13
2022-12-19T18:40:53.655Z,-2.05
2022-12-19T18:45:59.394Z,-1.96
2022-12-19T18:51:04.772Z,-1.89
2022-12-19T18:56:09.014Z,-1.82
2022-12-19T19:01:22.474Z,-1.77
2022-12-19T19:06:28.469Z,-1.73
2022-12-19T19:11:31.736Z,-1.69
2022-12-19T19:16:36.379Z,-1.70
2022-12-19T19:21:41.185Z,-1.67
2022-12-19T19:26:45.557Z,-1.58
2022-12-19T19:31:50.717Z,-1.50
2022-12-19T19:36:56.314Z,-1.42
2022-12-19T19:41:59.512Z,-1.36
2022-12-19T19:47:03.208Z,-1.32
2022-12-19T19:52:07.691Z,-1.30
2022-12-19T19:57:11.053Z,-1.27
2022-12-19T20:02:16.853Z,-1.24
2022-12-19T20:07:20.550Z,-1.21
2022-12-19T20:12:23.751Z,-1.18
2022-12-19T20:17:27.271Z,-1.16
2022-12-19T20:22:30.475Z,-1.16
2022-12-19T20:27:35.123Z,-1.19
2022-12-19T20:32:39.137Z,-1.22
2022-12-19T20:37:43.625Z,-1.25
2022-12-19T20:42:46.783Z,-1.28
2022-12-19T20:47:49.990Z,-1.31
2022-12-19T20:52:53.203Z,-1.33
2022-12-19T20:57:56.558Z,-1.35
2022-12-19T21:03:27.734Z,-1.36
2022-12-19T21:08:25.688Z,-1.35
2022-12-19T21:13:29.083Z,-1.32
2022-12-19T21:18:32.176Z,-1.29
2022-12-19T21:23:36.098Z,-1.26
2022-12-19T21:28:39.618Z,-1.24
2022-12-19T21:33:43.346Z,-1.24
2022-12-19T21:38:47.870Z,-1.25
2022-12-19T21:43:53.760Z,-1.27
2022-12-19T21:48:57.688Z,-1.30
2022-12-19T21:54:04.255Z,-1.31
2022-12-19T21:59:12.482Z,-1.33
2022-12-19T22:04:18.027Z,-1.34
2022-12-19T22:09:22.820Z,-1.32
2022-12-19T22:14:25.899Z,-1.29
2022-12-19T22:19:29.110Z,-1.24
2022-12-19T22:24:32.521Z,-1.17
2022-12-19T22:29:36.855Z,-1.10
2022-12-19T22:34:39.953Z,-1.03
2022-12-19T22:39:43.371Z,-0.97
2022-12-19T22:44:46.486Z,-0.90
2022-12-19T22:49:52.853Z,-0.82
2022-12-19T22:54:55.761Z,-0.73
2022-12-19T22:59:59.996Z,-0.62
2022-12-19T23:05:05.039Z,-0.52
2022-12-19T23:10:09.993Z,-0.41
2022-12-19T23:15:13.707Z,-0.29
2022-12-19T23:20:17.133Z,-0.19
2022-12-19T23:25:20.841Z,-0.09
2022-12-19T23:30:23.944Z,0.02
2022-12-19T23:35:27.970Z,0.14
2022-12-19T23:40:31.083Z,0.26
2022-12-19T23:45:38.105Z,0.34
2022-12-19T23:50:41.284Z,0.42
2022-12-19T23:55:44.326Z,0.50
